Time;durP1;ratioP1;P1;durP2;ratioP2;P2;SDS_P1;SDS_P2;PMS_P1;PMS_P2;Temp;Humidity;BMP_temperature;BMP_pressure;BME280_temperature;BME280_humidity;BME280_pressure;Samples;Min_cycle;Max_cycle;Signal;HPM_P1;HPM_P2
2023/11/02 00:01:26;;;;;;;;;1.00;1.00;;;;;13.48;91.25;98350.72;5059593;28;45465;-61
2023/11/02 00:03:51;;;;;;;;;3.75;3.25;;;;;13.45;90.94;98320.66;5059639;28;45509;-61
2023/11/02 00:06:30;;;;;;;;;5.00;2.00;;;;;13.42;91.27;98308.34;5066595;28;45322;-61
2023/11/02 00:09:05;;;;;;;;;1.00;1.00;;;;;13.42;90.99;98327.13;5062547;28;46497;-61
2023/11/02 00:11:56;;;;;;;;;4.50;1.00;;;;;13.55;91.07;98342.16;5059431;28;45645;-61
2023/11/02 00:14:23;;;;;;;;;1.00;1.00;;;;;13.45;91.22;98308.09;5067171;28;45436;-61
2023/11/02 00:16:49;;;;;;;;;3.00;1.00;;;;;13.36;91.46;98291.94;5079773;27;45314;-61
2023/11/02 00:19:29;;;;;;;;;0.25;0.00;;;;;13.22;91.43;98261.75;5079420;27;45348;-61
2023/11/02 00:21:56;;;;;;;;;2.00;1.00;;;;;13.14;91.55;98242.78;5061289;28;45454;-61
2023/11/02 00:24:22;;;;;;;;;1.50;0.50;;;;;13.13;91.78;98217.84;5080642;27;45410;-61
2023/11/02 00:26:47;;;;;;;;;0.00;0.00;;;;;13.11;91.77;98192.13;5057899;28;45362;-61
2023/11/02 00:29:13;;;;;;;;;1.00;1.00;;;;;13.37;91.99;98213.25;5067708;28;48059;-61
2023/11/02 00:31:38;;;;;;;;;1.50;1.00;;;;;13.02;92.04;98150.06;5062240;27;45420;-61
2023/11/02 00:34:03;;;;;;;;;4.00;0.00;;;;;13.11;91.62;98143.94;5059342;28;45798;-61
2023/11/02 00:36:32;;;;;;;;;2.25;1.00;;;;;13.31;91.67;98158.31;5060820;28;45513;-61
2023/11/02 00:38:58;;;;;;;;;2.75;1.00;;;;;13.07;91.62;98113.03;5067762;28;47282;-61
2023/11/02 00:41:23;;;;;;;;;1.00;1.00;;;;;13.05;91.97;98115.84;5088301;27;45317;-61
2023/11/02 00:43:48;;;;;;;;;2.75;1.00;;;;;13.07;91.67;98099.66;5061544;28;45628;-61
2023/11/02 00:46:14;;;;;;;;;0.75;0.75;;;;;13.06;92.07;98071.16;5063165;28;45426;-61
2023/11/02 00:48:40;;;;;;;;;2.50;0.50;;;;;13.00;92.00;98045.78;5067264;28;47993;-61
2023/11/02 00:51:13;;;;;;;;;0.00;0.00;;;;;13.17;92.10;98033.59;5062542;27;45272;-61
2023/11/02 00:53:43;;;;;;;;;3.00;1.75;;;;;12.85;92.37;97946.19;5059130;28;45468;-61
2023/11/02 00:56:09;;;;;;;;;0.00;0.00;;;;;13.08;92.14;97994.22;5058766;28;45314;-61
2023/11/02 00:58:43;;;;;;;;;2.00;1.00;;;;;13.01;91.88;98022.50;5057203;28;47958;-61
2023/11/02 01:01:12;;;;;;;;;0.00;0.00;;;;;12.95;92.09;97965.84;5076232;28;45423;-61
2023/11/02 01:03:38;;;;;;;;;1.25;0.00;;;;;12.90;92.12;97927.91;5066661;27;45634;-61
2023/11/02 01:06:12;;;;;;;;;1.00;1.00;;;;;12.97;92.55;97906.78;5058405;28;45535;-61
2023/11/02 01:08:37;;;;;;;;;1.00;0.00;;;;;12.74;92.81;97849.91;5058752;28;45573;-61
2023/11/02 01:11:03;;;;;;;;;1.25;1.00;;;;;12.75;92.17;97841.75;5064561;28;45356;-61
2023/11/02 01:13:28;;;;;;;;;1.75;0.00;;;;;12.87;92.59;97820.25;5064712;28;45462;-61
2023/11/02 01:16:04;;;;;;;;;3.50;0.25;;;;;12.83;92.57;97758.09;5058598;28;45679;-61
2023/11/02 01:18:29;;;;;;;;;1.25;1.00;;;;;12.60;93.11;97710.13;5071000;28;47251;-61
2023/11/02 01:21:06;;;;;;;;;1.00;0.75;;;;;12.76;93.22;97669.47;5058415;28;45599;-61
2023/11/02 01:23:32;;;;;;;;;0.75;0.75;;;;;12.60;93.06;97661.97;5057162;28;45515;-61
2023/11/02 01:26:01;;;;;;;;;2.50;0.00;;;;;12.53;93.68;97692.94;5058523;28;45557;-61
2023/11/02 01:28:52;;;;;;;;;4.00;1.00;;;;;12.59;93.31;97699.56;5058201;28;46300;-61
2023/11/02 01:31:19;;;;;;;;;0.00;0.00;;;;;12.57;92.91;97654.22;5056973;28;45341;-61
2023/11/02 01:33:53;;;;;;;;;1.00;0.50;;;;;12.59;93.37;97721.81;5057245;28;45363;-61
2023/11/02 01:36:28;;;;;;;;;2.00;1.00;;;;;12.51;94.25;97707.44;5061026;28;45335;-61
2023/11/02 01:39:08;;;;;;;;;0.00;0.00;;;;;12.71;93.79;97713.69;5061968;28;45523;-61
2023/11/02 01:41:40;;;;;;;;;0.75;0.75;;;;;12.71;94.42;97692.28;5061845;28;45601;-61
2023/11/02 01:44:18;;;;;;;;;0.00;0.00;;;;;12.57;94.05;97677.47;5063182;28;45701;-61
2023/11/02 01:47:46;;;;;;;;;0.50;0.00;;;;;12.72;94.65;97686.78;5066056;28;45555;-61
2023/11/02 01:50:11;;;;;;;;;0.00;0.00;;;;;12.76;94.84;97640.03;4966223;28;47897;-61
2023/11/02 01:52:54;;;;;;;;;0.50;0.50;;;;;12.82;94.66;97654.69;5063524;28;45538;-61
2023/11/02 01:55:32;;;;;;;;;0.00;0.00;;;;;12.55;94.43;97604.53;5082030;28;45448;-61
2023/11/02 01:58:00;;;;;;;;;1.00;1.00;;;;;12.83;94.54;97560.03;5081660;27;45290;-61
2023/11/02 02:00:40;;;;;;;;;0.50;0.00;;;;;12.65;94.79;97534.97;5081591;27;45452;-61
2023/11/02 02:03:19;;;;;;;;;0.00;0.00;;;;;12.69;94.77;97622.81;5081884;27;45256;-61
2023/11/02 02:05:47;;;;;;;;;2.00;1.00;;;;;12.89;95.08;97585.38;5081644;28;45251;-61
2023/11/02 02:08:43;;;;;;;;;2.00;0.00;;;;;12.89;94.83;97539.84;5069993;28;45568;-61
2023/11/02 02:11:20;;;;;;;;;1.00;1.00;;;;;12.91;95.31;97552.13;5061375;28;45570;-61
2023/11/02 02:14:30;;;;;;;;;2.00;1.00;;;;;12.94;95.09;97529.56;5073186;28;45367;-61
2023/11/02 02:17:16;;;;;;;;;1.00;0.00;;;;;12.65;95.32;97435.94;5061341;28;45463;-62
2023/11/02 02:20:00;;;;;;;;;0.50;0.50;;;;;12.83;95.17;97458.31;5061240;28;45357;-61
2023/11/02 02:22:33;;;;;;;;;0.00;0.00;;;;;13.02;95.04;97496.72;5059726;28;48420;-61
2023/11/02 02:25:24;;;;;;;;;0.00;0.00;;;;;13.06;95.09;97490.09;5060877;28;45395;-61
2023/11/02 02:28:02;;;;;;;;;2.25;0.50;;;;;13.08;94.95;97510.38;5081337;28;45565;-62
2023/11/02 02:30:45;;;;;;;;;2.00;0.25;;;;;13.09;94.92;97504.03;5081398;27;45329;-61
2023/11/02 02:33:39;;;;;;;;;0.00;0.00;;;;;12.90;94.90;97458.56;5067515;27;45512;-61
2023/11/02 02:36:20;;;;;;;;;0.00;0.00;;;;;13.01;95.01;97478.97;5081325;28;45593;-62
2023/11/02 02:38:52;;;;;;;;;0.75;0.00;;;;;12.91;94.47;97476.31;5080033;28;45418;-61
2023/11/02 02:41:21;;;;;;;;;0.00;0.00;;;;;13.15;94.44;97463.28;5081318;27;45358;-61
2023/11/02 02:43:52;;;;;;;;;0.00;0.00;;;;;13.16;94.40;97453.41;5070904;27;45397;-61
2023/11/02 02:46:20;;;;;;;;;0.00;0.00;;;;;12.88;93.98;97404.31;5063976;28;45603;-61
2023/11/02 02:48:47;;;;;;;;;0.00;0.00;;;;;13.25;93.80;97494.56;5070515;28;45467;-61
2023/11/02 02:51:15;;;;;;;;;0.00;0.00;;;;;13.23;94.13;97462.56;5062681;27;45540;-62
2023/11/02 02:53:42;;;;;;;;;0.00;0.00;;;;;13.11;93.96;97429.75;5071079;28;47472;-62
2023/11/02 02:56:09;;;;;;;;;0.00;0.00;;;;;13.26;93.66;97435.44;5061979;27;45488;-61
2023/11/02 02:58:50;;;;;;;;;0.00;0.00;;;;;13.17;92.93;97431.00;5060643;28;45335;-61
2023/11/02 03:01:19;;;;;;;;;0.00;0.00;;;;;13.36;93.18;97435.44;5068084;28;45428;-61
2023/11/02 03:03:46;;;;;;;;;0.00;0.00;;;;;13.27;92.89;97426.44;5080746;28;46165;-62
2023/11/02 03:06:11;;;;;;;;;0.00;0.00;;;;;13.26;92.79;97421.22;5080749;27;45475;-61
2023/11/02 03:08:40;;;;;;;;;0.00;0.00;;;;;13.40;92.42;97417.25;5080820;27;45460;-61
2023/11/02 03:11:09;;;;;;;;;0.00;0.00;;;;;13.45;92.06;97436.41;5080756;27;45522;-61
2023/11/02 03:13:34;;;;;;;;;0.00;0.00;;;;;13.38;91.69;97419.22;5080228;27;45762;-61
2023/11/02 03:16:02;;;;;;;;;0.00;0.00;;;;;13.19;91.54;97370.09;5080755;27;45326;-61
2023/11/02 03:18:34;;;;;;;;;0.00;0.00;;;;;13.61;90.78;97414.31;5065755;28;45520;-61
2023/11/02 03:20:59;;;;;;;;;0.00;0.00;;;;;13.51;90.04;97407.19;5080551;27;45352;-61
2023/11/02 03:23:57;;;;;;;;;0.00;0.00;;;;;13.54;89.87;97371.19;5080136;27;46178;-61
2023/11/02 03:26:25;;;;;;;;;0.00;0.00;;;;;13.29;89.48;97346.78;5073064;27;45487;-61
2023/11/02 03:29:12;;;;;;;;;0.00;0.00;;;;;13.73;88.41;97422.97;5080406;27;45466;-61
2023/11/02 03:31:43;;;;;;;;;0.00;0.00;;;;;13.59;88.24;97395.69;5064800;28;45454;-61
2023/11/02 03:34:39;;;;;;;;;0.00;0.00;;;;;13.58;87.44;97391.34;5080398;28;45797;-61
2023/11/02 03:37:29;;;;;;;;;0.00;0.00;;;;;13.84;87.12;97401.34;5059710;28;45560;-61
2023/11/02 03:40:00;;;;;;;;;1.75;0.00;;;;;13.86;86.57;97418.09;5076900;28;45415;-61
2023/11/02 03:43:04;;;;;;;;;1.75;0.00;;;;;13.87;86.51;97412.59;5067690;28;45585;-61
2023/11/02 03:45:49;;;;;;;;;1.00;0.00;;;;;13.90;85.86;97451.66;5060607;28;45562;-61
2023/11/02 03:48:44;;;;;;;;;0.00;0.00;;;;;13.95;85.52;97419.88;5058689;28;46064;-61
2023/11/02 03:51:16;;;;;;;;;1.75;0.50;;;;;13.98;85.91;97389.22;5076954;28;45347;-61
2023/11/02 03:54:01;;;;;;;;;1.00;0.00;;;;;13.81;84.95;97374.81;5080178;27;45389;-61
2023/11/02 03:56:41;;;;;;;;;0.00;0.00;;;;;13.84;84.96;97385.25;5065463;27;46671;-61
2023/11/02 03:59:19;;;;;;;;;1.00;0.50;;;;;13.78;85.29;97362.59;5064577;28;45766;-61
2023/11/02 04:02:10;;;;;;;;;1.25;0.00;;;;;14.04;85.65;97394.81;5080141;28;45321;-61
2023/11/02 04:04:40;;;;;;;;;2.00;0.00;;;;;14.05;85.97;97399.19;5071119;28;45434;-61
2023/11/02 04:07:24;;;;;;;;;0.00;0.00;;;;;13.85;85.99;97362.81;5074259;28;46140;-61
2023/11/02 04:09:58;;;;;;;;;0.75;0.75;;;;;14.03;86.04;97411.06;5067205;28;45326;-61
2023/11/02 04:12:41;;;;;;;;;3.75;0.00;;;;;14.09;86.67;97456.88;5077982;28;45595;-61
2023/11/02 04:15:09;;;;;;;;;0.75;0.75;;;;;13.78;87.24;97452.84;5079571;27;45384;-61
2023/11/02 04:17:36;;;;;;;;;1.00;0.50;;;;;13.90;88.44;97457.03;5079634;27;45336;-61
2023/11/02 04:20:03;;;;;;;;;0.25;0.25;;;;;13.98;88.94;97494.66;5064620;27;45813;-61
2023/11/02 04:22:28;;;;;;;;;3.00;1.25;;;;;14.03;89.38;97449.47;5079850;27;45468;-61
2023/11/02 04:24:54;;;;;;;;;2.00;0.25;;;;;13.73;89.82;97358.66;5079303;28;45382;-61
2023/11/02 04:27:20;;;;;;;;;3.00;1.00;;;;;13.80;89.66;97381.16;5079337;27;45479;-61
2023/11/02 04:29:45;;;;;;;;;1.25;0.00;;;;;13.89;89.79;97399.88;5079505;27;45417;-61
2023/11/02 04:32:11;;;;;;;;;1.00;0.00;;;;;13.88;90.00;97395.53;5071825;27;45500;-61
2023/11/02 04:34:36;;;;;;;;;4.50;1.00;;;;;13.79;90.55;97360.72;5071277;28;45462;-61
2023/11/02 04:37:01;;;;;;;;;3.25;0.75;;;;;13.91;90.42;97372.91;5059120;28;45391;-61
2023/11/02 04:39:27;;;;;;;;;0.75;0.00;;;;;13.85;90.38;97366.34;5059045;28;45322;-61
2023/11/02 04:41:52;;;;;;;;;3.50;1.75;;;;;13.83;90.48;97360.28;5059353;28;45394;-61
2023/11/02 04:44:18;;;;;;;;;1.00;0.50;;;;;13.65;90.17;97329.97;5061448;28;45347;-61
2023/11/02 04:46:43;;;;;;;;;2.00;1.00;;;;;13.73;90.05;97326.50;5062947;28;46365;-61
2023/11/02 04:49:09;;;;;;;;;4.50;0.00;;;;;13.66;89.87;97316.38;5071212;28;45339;-61
2023/11/02 04:51:35;;;;;;;;;4.50;1.25;;;;;13.65;90.09;97329.97;5058998;28;45268;-61
2023/11/02 04:54:00;;;;;;;;;1.00;0.50;;;;;13.62;89.55;97331.09;5059019;28;45705;-61
2023/11/02 04:56:28;;;;;;;;;2.00;1.00;;;;;13.77;89.44;97342.13;5058871;28;45496;-61
2023/11/02 04:58:54;;;;;;;;;0.00;0.00;;;;;13.66;88.86;97337.81;5058519;28;45560;-61
2023/11/02 05:01:20;;;;;;;;;0.00;0.00;;;;;13.82;88.33;97379.19;5059070;28;45472;-62
2023/11/02 05:03:45;;;;;;;;;4.00;1.50;;;;;13.75;87.94;97370.06;5058672;28;45456;-61
2023/11/02 05:06:11;;;;;;;;;3.75;1.50;;;;;13.71;87.83;97375.75;5064266;28;47101;-61
2023/11/02 05:08:36;;;;;;;;;1.00;1.00;;;;;13.69;87.48;97374.22;5065308;27;45559;-61
2023/11/02 05:11:01;;;;;;;;;0.00;0.00;;;;;13.52;87.32;97339.19;5066930;28;45600;-61
2023/11/02 05:13:27;;;;;;;;;0.75;0.75;;;;;13.65;87.41;97370.16;5068683;27;45494;-61
2023/11/02 05:15:57;;;;;;;;;4.00;1.00;;;;;13.66;86.70;97385.22;5067510;28;46716;-62
2023/11/02 05:18:23;;;;;;;;;1.25;0.25;;;;;13.45;86.79;97332.75;5068148;27;45386;-61
2023/11/02 05:20:50;;;;;;;;;0.00;0.00;;;;;13.29;86.93;97325.34;5062193;28;45382;-61
2023/11/02 05:23:15;;;;;;;;;2.00;0.00;;;;;13.41;86.61;97328.69;5062013;28;45585;-61
2023/11/02 05:25:41;;;;;;;;;0.00;0.00;;;;;13.41;86.75;97317.97;5062139;28;45229;-61
2023/11/02 05:28:07;;;;;;;;;0.50;0.00;;;;;13.58;86.54;97361.00;5061924;28;45507;-61
2023/11/02 05:30:39;;;;;;;;;1.00;0.00;;;;;13.51;86.33;97342.03;5062187;28;45526;-61
2023/11/02 05:33:04;;;;;;;;;2.25;0.75;;;;;13.54;86.34;97331.00;5061854;28;45650;-61
2023/11/02 05:35:29;;;;;;;;;1.00;0.00;;;;;13.31;86.53;97285.88;5062041;28;45388;-61
2023/11/02 05:37:55;;;;;;;;;2.25;0.00;;;;;13.34;86.52;97298.16;5061871;28;45377;-61
2023/11/02 05:40:20;;;;;;;;;0.00;0.00;;;;;13.44;86.60;97316.84;5062052;28;45398;-61
2023/11/02 05:42:45;;;;;;;;;3.00;1.00;;;;;13.37;86.49;97287.13;5064355;28;45232;-61
2023/11/02 05:45:12;;;;;;;;;3.00;2.00;;;;;13.55;86.22;97316.63;5061581;28;46475;-61
2023/11/02 05:47:37;;;;;;;;;1.00;0.00;;;;;13.61;86.50;97336.59;5064687;28;45335;-61
2023/11/02 05:50:03;;;;;;;;;3.75;2.00;;;;;13.46;86.05;97299.59;5061972;28;45340;-61
2023/11/02 05:52:28;;;;;;;;;2.00;1.00;;;;;13.63;86.04;97340.81;5061633;28;45370;-61
2023/11/02 05:54:54;;;;;;;;;1.25;1.00;;;;;13.41;85.62;97312.59;5061532;28;46463;-61
2023/11/02 05:57:19;;;;;;;;;3.25;1.50;;;;;13.47;85.46;97303.16;5061434;28;45378;-61
2023/11/02 05:59:44;;;;;;;;;1.00;1.00;;;;;13.64;85.23;97347.84;5061619;28;45531;-61
2023/11/02 06:02:10;;;;;;;;;2.75;1.25;;;;;13.47;84.98;97319.22;5061515;28;45562;-61
2023/11/02 06:04:35;;;;;;;;;3.00;0.00;;;;;13.40;84.21;97297.56;5061403;28;46281;-61
2023/11/02 06:07:00;;;;;;;;;2.25;2.25;;;;;13.47;84.71;97316.53;5061267;28;45560;-61
2023/11/02 06:09:26;;;;;;;;;1.50;1.50;;;;;13.58;84.60;97319.00;5061573;28;45366;-61
2023/11/02 06:11:51;;;;;;;;;3.00;1.00;;;;;13.60;84.02;97325.03;5061319;28;45478;-61
2023/11/02 06:14:17;;;;;;;;;4.25;1.75;;;;;13.59;83.72;97311.78;5060989;28;46441;-61
2023/11/02 06:16:42;;;;;;;;;3.75;0.75;;;;;13.51;83.41;97307.19;5061246;28;45413;-61
2023/11/02 06:19:07;;;;;;;;;3.25;1.00;;;;;13.41;83.40;97276.94;5061475;28;45373;-61
2023/11/02 06:21:33;;;;;;;;;0.00;0.00;;;;;13.66;83.05;97318.22;5058348;28;45380;-61
2023/11/02 06:23:58;;;;;;;;;1.75;1.00;;;;;13.42;82.64;97282.16;5060985;28;46253;-61
2023/11/02 06:26:24;;;;;;;;;1.00;1.00;;;;;13.44;82.31;97274.81;5061154;28;45381;-61
2023/11/02 06:28:49;;;;;;;;;2.25;1.25;;;;;13.53;82.04;97302.50;5060896;28;45411;-61
2023/11/02 06:31:14;;;;;;;;;0.25;0.25;;;;;13.51;81.63;97318.78;5061124;28;45637;-61
2023/11/02 06:33:41;;;;;;;;;1.50;0.00;;;;;13.52;81.91;97315.06;5060726;28;45531;-61
2023/11/02 06:36:06;;;;;;;;;2.00;2.00;;;;;13.51;81.48;97313.41;5073242;28;46153;-61
2023/11/02 06:38:33;;;;;;;;;2.75;1.00;;;;;13.53;80.42;97346.25;5081418;28;45339;-61
2023/11/02 06:40:59;;;;;;;;;0.75;0.75;;;;;13.56;80.84;97331.69;5049102;28;45510;-61
2023/11/02 06:43:26;;;;;;;;;1.00;0.00;;;;;13.65;80.29;97349.53;5044897;28;46596;-61
2023/11/02 06:45:52;;;;;;;;;2.50;1.50;;;;;13.49;80.03;97320.72;5089665;27;46164;-61
2023/11/02 06:48:17;;;;;;;;;4.25;2.00;;;;;13.71;79.59;97342.72;5066677;28;45489;-61
2023/11/02 06:50:46;;;;;;;;;3.75;0.25;;;;;13.54;79.45;97320.28;5067639;27;45484;-61
2023/11/02 06:53:12;;;;;;;;;2.00;1.00;;;;;13.70;79.54;97336.53;5059241;28;47423;-61
2023/11/02 06:55:39;;;;;;;;;4.00;2.00;;;;;13.37;79.22;97278.25;5059298;28;45333;-61
2023/11/02 06:58:05;;;;;;;;;4.50;1.00;;;;;13.74;79.40;97355.81;5080964;27;45449;-61
2023/11/02 07:00:30;;;;;;;;;1.00;0.75;;;;;13.73;79.42;97375.56;5080738;27;45434;-61
2023/11/02 07:02:56;;;;;;;;;2.00;1.00;;;;;13.53;79.13;97331.97;5080821;28;45483;-61
2023/11/02 07:05:22;;;;;;;;;5.25;1.00;;;;;13.72;78.94;97363.19;5065789;28;46195;-61
2023/11/02 07:07:49;;;;;;;;;2.00;1.25;;;;;13.50;78.67;97343.88;5093123;27;45404;-61
2023/11/02 07:10:14;;;;;;;;;3.50;0.50;;;;;13.35;78.43;97307.88;5060418;28;45524;-61
2023/11/02 07:12:40;;;;;;;;;6.00;2.00;;;;;13.51;78.62;97350.91;5060228;28;45980;-61
2023/11/02 07:15:06;;;;;;;;;3.00;1.00;;;;;13.71;78.68;97373.06;5059958;28;45388;-61
2023/11/02 07:17:31;;;;;;;;;2.00;1.00;;;;;13.52;78.87;97341.88;5065985;28;45537;-61
2023/11/02 07:19:56;;;;;;;;;1.75;1.75;;;;;13.57;78.45;97337.91;5067017;27;45327;-61
2023/11/02 07:22:22;;;;;;;;;5.50;3.00;;;;;13.52;78.35;97357.94;5060122;28;45468;-61
2023/11/02 07:24:47;;;;;;;;;1.00;0.00;;;;;13.76;78.44;97399.41;5060042;28;45286;-61
2023/11/02 07:27:12;;;;;;;;;4.25;0.50;;;;;13.45;79.06;97337.28;5060147;28;45355;-61
2023/11/02 07:29:38;;;;;;;;;4.50;2.00;;;;;13.59;78.87;97379.63;5060105;28;45264;-61
2023/11/02 07:32:03;;;;;;;;;2.25;0.75;;;;;13.51;78.85;97368.81;5078703;28;46375;-61
2023/11/02 07:34:29;;;;;;;;;3.00;1.25;;;;;13.46;79.12;97363.91;5079885;28;45293;-61
2023/11/02 07:36:56;;;;;;;;;2.75;1.00;;;;;13.64;79.15;97388.06;5058975;28;45362;-61
2023/11/02 07:39:21;;;;;;;;;5.50;2.00;;;;;13.53;79.39;97369.50;5068574;28;45525;-61
2023/11/02 07:41:47;;;;;;;;;2.75;2.00;;;;;13.70;79.46;97402.72;5078505;28;47296;-61
2023/11/02 07:44:13;;;;;;;;;4.50;3.00;;;;;13.55;79.11;97375.56;5066526;27;45460;-61
2023/11/02 07:46:38;;;;;;;;;2.00;0.25;;;;;13.34;79.41;97349.03;5064150;28;45422;-61
2023/11/02 07:49:03;;;;;;;;;3.50;2.00;;;;;13.34;79.09;97365.94;5059898;28;45364;-61
2023/11/02 07:51:29;;;;;;;;;1.50;1.00;;;;;13.48;78.34;97379.81;5059442;28;46444;-61
2023/11/02 07:53:54;;;;;;;;;1.50;1.00;;;;;13.62;77.95;97390.03;5059758;28;45631;-61
2023/11/02 07:56:20;;;;;;;;;3.50;0.00;;;;;13.53;77.47;97401.66;5078313;28;45401;-61
2023/11/02 07:58:45;;;;;;;;;1.75;1.00;;;;;13.52;77.57;97391.94;5067121;27;45345;-61
2023/11/02 08:01:11;;;;;;;;;2.00;1.00;;;;;13.54;77.28;97381.91;5058247;28;45364;-61
2023/11/02 08:03:36;;;;;;;;;1.75;1.50;;;;;13.56;77.62;97387.97;5070461;28;45424;-61
2023/11/02 08:06:02;;;;;;;;;1.25;0.00;;;;;13.64;78.05;97425.56;5060490;27;45263;-61
2023/11/02 08:08:28;;;;;;;;;0.75;0.00;;;;;13.55;78.32;97404.19;5059694;28;45316;-61
2023/11/02 08:10:54;;;;;;;;;1.50;1.00;;;;;13.40;78.05;97374.38;5059271;28;46191;-61
2023/11/02 08:13:21;;;;;;;;;0.75;0.75;;;;;13.59;79.07;97406.41;5059112;28;45512;-61
2023/11/02 08:15:46;;;;;;;;;2.50;1.50;;;;;13.53;78.61;97386.44;5059130;28;45907;-61
2023/11/02 08:18:11;;;;;;;;;1.50;1.50;;;;;13.48;78.64;97390.53;5058065;28;45409;-61
2023/11/02 08:20:37;;;;;;;;;4.00;0.25;;;;;13.59;78.09;97400.22;5057612;28;47255;-61
2023/11/02 08:23:02;;;;;;;;;2.75;0.50;;;;;13.49;77.55;97402.97;5059311;28;45665;-61
2023/11/02 08:25:28;;;;;;;;;1.00;0.75;;;;;13.66;77.22;97428.94;5057925;28;45417;-61
2023/11/02 08:27:57;;;;;;;;;1.50;0.75;;;;;13.52;76.42;97400.81;5058978;28;45409;-61
2023/11/02 08:30:23;;;;;;;;;2.25;0.50;;;;;13.53;76.44;97383.75;5058898;28;45356;-61
2023/11/02 08:32:49;;;;;;;;;1.00;1.00;;;;;13.70;76.70;97422.31;5059174;28;45571;-61
2023/11/02 08:35:17;;;;;;;;;2.75;2.00;;;;;13.53;76.03;97389.13;5059140;28;45252;-61
2023/11/02 08:37:43;;;;;;;;;1.00;1.00;;;;;13.42;76.25;97375.94;5057820;28;45465;-61
2023/11/02 08:40:10;;;;;;;;;1.75;0.25;;;;;13.57;75.54;97386.97;5059000;28;46573;-61
2023/11/02 08:42:35;;;;;;;;;3.25;1.25;;;;;13.44;75.26;97346.31;5070975;28;45338;-61
2023/11/02 08:45:00;;;;;;;;;3.25;1.50;;;;;13.77;75.22;97397.59;5058204;27;45526;-61
2023/11/02 08:47:26;;;;;;;;;1.00;1.00;;;;;13.76;75.10;97401.25;5061602;28;45509;-61
2023/11/02 08:49:53;;;;;;;;;2.50;1.00;;;;;13.69;75.07;97412.56;5074340;28;47473;-61
2023/11/02 08:52:18;;;;;;;;;1.25;1.00;;;;;13.52;74.96;97362.47;5070726;28;45425;-61
2023/11/02 08:54:44;;;;;;;;;1.00;1.00;;;;;13.73;74.18;97394.34;5059171;27;45483;-61
2023/11/02 08:57:09;;;;;;;;;2.00;0.75;;;;;13.70;74.69;97416.94;5070632;28;45328;-61
2023/11/02 08:59:34;;;;;;;;;0.00;0.00;;;;;13.63;74.39;97391.75;5058957;27;45399;-61
2023/11/02 09:02:00;;;;;;;;;1.25;0.75;;;;;13.80;74.05;97458.91;5058793;28;45306;-61
2023/11/02 09:04:25;;;;;;;;;1.50;0.00;;;;;13.60;74.62;97426.88;5058673;28;45319;-61
2023/11/02 09:06:51;;;;;;;;;2.00;1.00;;;;;13.77;73.49;97465.44;5058678;28;45514;-61
2023/11/02 09:09:17;;;;;;;;;1.50;0.00;;;;;13.80;73.30;97445.50;5058431;28;46061;-61
2023/11/02 09:11:42;;;;;;;;;2.00;0.00;;;;;13.60;73.48;97460.84;5058566;28;45622;-61
2023/11/02 09:14:07;;;;;;;;;0.00;0.00;;;;;13.71;72.21;97450.81;5058395;28;45549;-61
2023/11/02 09:16:33;;;;;;;;;0.25;0.00;;;;;13.74;71.45;97451.50;5058741;28;45512;-61
2023/11/02 09:18:59;;;;;;;;;1.00;0.00;;;;;13.84;71.65;97501.34;5058424;28;45445;-61
2023/11/02 09:21:25;;;;;;;;;0.00;0.00;;;;;13.66;71.91;97436.97;5058454;28;45627;-61
2023/11/02 09:23:50;;;;;;;;;1.75;0.00;;;;;13.57;71.85;97423.66;5058418;28;45418;-61
2023/11/02 09:26:16;;;;;;;;;1.00;1.00;;;;;13.71;72.02;97453.47;5058621;28;45311;-61
2023/11/02 09:28:41;;;;;;;;;1.00;0.00;;;;;13.87;72.36;97458.16;5057926;28;45382;-61
2023/11/02 09:31:12;;;;;;;;;0.00;0.00;;;;;13.78;72.84;97444.81;5058477;28;45347;-61
2023/11/02 09:33:38;;;;;;;;;1.75;0.00;;;;;13.81;72.19;97436.47;5076887;28;45513;-61
2023/11/02 09:36:05;;;;;;;;;0.75;0.00;;;;;13.77;72.27;97435.94;5065774;27;45432;-61
2023/11/02 09:38:30;;;;;;;;;0.00;0.00;;;;;13.95;72.52;97486.06;5076592;28;48460;-61
2023/11/02 09:40:56;;;;;;;;;0.00;0.00;;;;;14.01;73.04;97502.38;5065837;27;45371;-61
2023/11/02 09:43:22;;;;;;;;;3.00;0.00;;;;;13.80;73.54;97459.78;5060211;28;45424;-61
2023/11/02 09:45:47;;;;;;;;;2.00;0.25;;;;;13.79;72.70;97436.63;5061622;28;45343;-61
2023/11/02 09:48:13;;;;;;;;;2.50;1.00;;;;;13.84;72.87;97471.88;5058811;27;45402;-61
2023/11/02 09:50:38;;;;;;;;;1.50;0.00;;;;;13.93;72.96;97499.59;5058323;28;45483;-61
2023/11/02 09:53:06;;;;;;;;;0.00;0.00;;;;;14.07;73.03;97507.16;5057990;28;45484;-61
2023/11/02 09:55:32;;;;;;;;;1.50;0.00;;;;;13.88;72.22;97459.88;5058303;28;45464;-61
2023/11/02 09:57:59;;;;;;;;;1.00;1.00;;;;;13.97;71.85;97505.53;5061002;28;45661;-61
2023/11/02 10:00:24;;;;;;;;;1.25;0.00;;;;;13.98;71.02;97488.44;5061305;28;45491;-61
2023/11/02 10:02:52;;;;;;;;;1.00;0.00;;;;;13.99;71.65;97493.66;5059988;28;45484;-61
2023/11/02 10:05:18;;;;;;;;;1.25;1.00;;;;;13.95;70.88;97481.56;5061110;28;45685;-61
2023/11/02 10:07:44;;;;;;;;;2.00;0.00;;;;;13.97;70.99;97495.66;5061089;28;45458;-61
2023/11/02 10:10:13;;;;;;;;;1.00;0.00;;;;;13.96;69.30;97493.94;5061167;28;45342;-62
2023/11/02 10:12:40;;;;;;;;;0.75;0.25;;;;;13.93;70.45;97491.56;5067881;28;45455;-61
2023/11/02 10:15:09;;;;;;;;;2.00;0.25;;;;;14.14;70.48;97546.78;5081251;27;45473;-61
2023/11/02 10:17:36;;;;;;;;;0.75;0.00;;;;;13.94;70.20;97490.59;5080045;28;47304;-61
2023/11/02 10:20:10;;;;;;;;;1.75;0.50;;;;;14.07;70.06;97512.53;5081364;27;45626;-61
2023/11/02 10:22:36;;;;;;;;;4.00;0.00;;;;;14.03;70.01;97512.97;5071548;28;45339;-61
2023/11/02 10:25:03;;;;;;;;;0.00;0.00;;;;;14.15;70.10;97527.88;5061447;28;45564;-61
2023/11/02 10:27:28;;;;;;;;;3.00;1.00;;;;;14.24;69.89;97536.84;5079662;28;47265;-61
2023/11/02 10:29:54;;;;;;;;;3.00;1.00;;;;;14.15;69.57;97532.38;5081071;27;45389;-61
2023/11/02 10:32:21;;;;;;;;;0.00;0.00;;;;;14.15;69.79;97527.00;5072609;27;45554;-61
2023/11/02 10:34:46;;;;;;;;;1.00;0.50;;;;;14.18;69.87;97529.38;5076622;28;45448;-61
2023/11/02 10:37:12;;;;;;;;;1.50;1.00;;;;;14.32;69.88;97554.88;5080616;27;60579;-61
2023/11/02 10:39:37;;;;;;;;;1.00;0.25;;;;;14.21;69.57;97550.56;5066000;28;45363;-61
2023/11/02 10:42:06;;;;;;;;;0.50;0.50;;;;;14.32;69.36;97542.28;5081204;27;45314;-61
2023/11/02 10:44:35;;;;;;;;;2.50;0.00;;;;;14.33;69.32;97560.06;5064318;27;45349;-61
2023/11/02 10:47:07;;;;;;;;;0.00;0.00;;;;;14.34;69.84;97553.72;5063085;28;47141;-61
2023/11/02 10:49:36;;;;;;;;;1.75;1.00;;;;;14.21;69.08;97537.97;5060672;28;45638;-61
2023/11/02 10:52:07;;;;;;;;;1.75;0.00;;;;;14.26;69.47;97545.56;5060964;28;45342;-61
2023/11/02 10:54:32;;;;;;;;;1.00;1.00;;;;;14.41;69.38;97545.91;5059298;28;45630;-61
2023/11/02 10:57:15;;;;;;;;;1.00;1.00;;;;;14.17;69.63;97507.09;5060341;28;45480;-61
2023/11/02 10:59:41;;;;;;;;;0.50;0.00;;;;;14.38;70.20;97533.66;5068433;28;45831;-61
2023/11/02 11:02:10;;;;;;;;;1.00;1.00;;;;;14.39;70.19;97535.31;5079563;28;45495;-61
2023/11/02 11:04:40;;;;;;;;;1.00;1.00;;;;;14.35;69.35;97559.91;5080821;27;45650;-61
2023/11/02 11:07:06;;;;;;;;;2.25;1.75;;;;;14.35;69.25;97501.75;5079937;27;48531;-61
2023/11/02 11:09:32;;;;;;;;;2.00;0.00;;;;;14.39;69.10;97521.91;5080242;27;45598;-61
2023/11/02 11:12:00;;;;;;;;;1.00;1.00;;;;;14.39;68.97;97516.53;5080469;27;45505;-61
2023/11/02 11:14:27;;;;;;;;;4.75;0.25;;;;;14.54;68.68;97562.47;5080472;28;45528;-62
2023/11/02 11:16:55;;;;;;;;;2.25;1.00;;;;;14.49;68.82;97561.25;5080466;27;45498;-61
2023/11/02 11:19:21;;;;;;;;;2.00;1.00;;;;;14.33;68.79;97522.50;5080613;27;45839;-61
2023/11/02 11:21:50;;;;;;;;;1.50;1.50;;;;;14.46;68.42;97533.69;5080615;27;45397;-61
2023/11/02 11:24:16;;;;;;;;;4.50;1.00;;;;;14.55;67.99;97560.63;5079838;27;45534;-61
2023/11/02 11:26:54;;;;;;;;;0.25;0.00;;;;;14.43;67.39;97522.44;5080401;27;45592;-61
2023/11/02 11:29:35;;;;;;;;;2.00;2.00;;;;;14.49;67.35;97539.78;5078968;28;45534;-61
2023/11/02 11:32:02;;;;;;;;;0.00;0.00;;;;;14.62;67.24;97569.81;5074079;27;45469;-61
2023/11/02 11:34:58;;;;;;;;;1.25;1.00;;;;;14.58;67.12;97569.25;5073432;28;45252;-61
2023/11/02 11:38:05;;;;;;;;;3.00;1.00;;;;;14.61;67.09;97565.41;5068313;27;48060;-61
2023/11/02 11:40:29;;;;;;;;;2.00;1.00;;;;;14.72;67.21;97584.00;5059586;28;45299;-61
2023/11/02 11:43:05;;;;;;;;;2.75;2.00;;;;;14.68;67.27;97577.22;5072001;28;45346;-62
2023/11/02 11:45:36;;;;;;;;;0.50;0.25;;;;;14.74;66.54;97598.09;5059703;28;45725;-61